Time;durP1;ratioP1;P1;durP2;ratioP2;P2;SDS_P1;SDS_P2;PMS_P1;PMS_P2;Temp;Humidity;BMP_temperature;BMP_pressure;BME280_temperature;BME280_humidity;BME280_pressure;Samples;Min_cycle;Max_cycle;Signal;HPM_P1;HPM_P2
2022/01/10 00:01:42;;;;;;;3.47;2.58;;;;;;;;;;5068485;28;20079;-68
2022/01/10 00:04:08;;;;;;;10.50;2.63;;;;;;;;;;5068277;28;20032;-68
2022/01/10 00:06:33;;;;;;;3.97;2.42;;;;;;;;;;5069706;28;20144;-68
2022/01/10 00:08:58;;;;;;;4.68;2.83;;;;;;;;;;5069104;28;20056;-68
2022/01/10 00:11:23;;;;;;;5.13;3.00;;;;;;;;;;5069006;28;20032;-68
2022/01/10 00:13:51;;;;;;;4.38;3.28;;;;;;;;;;5069511;28;20344;-68
2022/01/10 00:16:16;;;;;;;6.25;2.80;;;;;;;;;;5069310;28;20042;-68
2022/01/10 00:18:41;;;;;;;5.07;3.10;;;;;;;;;;5051202;28;20020;-67
2022/01/10 00:21:07;;;;;;;4.32;3.00;;;;;;;;;;5068698;28;20032;-68
2022/01/10 00:23:32;;;;;;;8.45;3.33;;;;;;;;;;5069262;28;20040;-68
2022/01/10 00:25:57;;;;;;;7.57;3.33;;;;;;;;;;5069071;28;20103;-68
2022/01/10 00:28:23;;;;;;;6.57;3.20;;;;;;;;;;5069293;28;20473;-68
2022/01/10 00:30:48;;;;;;;7.43;3.22;;;;;;;;;;5066531;28;20036;-69
2022/01/10 00:33:13;;;;;;;7.97;3.50;;;;;;;;;;5067690;28;20028;-67
2022/01/10 00:35:39;;;;;;;8.38;3.80;;;;;;;;;;5068949;28;20082;-69
2022/01/10 00:38:04;;;;;;;5.68;3.05;;;;;;;;;;5068631;28;20036;-68
2022/01/10 00:40:29;;;;;;;6.70;2.85;;;;;;;;;;5069095;28;20035;-68
2022/01/10 00:42:56;;;;;;;5.25;2.78;;;;;;;;;;5066988;28;20028;-67
2022/01/10 00:45:26;;;;;;;4.07;2.80;;;;;;;;;;5068725;28;20479;-69
2022/01/10 00:47:52;;;;;;;3.63;2.47;;;;;;;;;;5068606;28;20103;-68
2022/01/10 00:50:18;;;;;;;8.27;2.70;;;;;;;;;;5067318;28;20685;-68
2022/01/10 00:52:43;;;;;;;5.95;2.33;;;;;;;;;;5066917;28;20123;-68
2022/01/10 00:55:09;;;;;;;3.53;2.90;;;;;;;;;;5067252;28;20039;-69
2022/01/10 00:57:34;;;;;;;5.25;2.47;;;;;;;;;;5067291;28;20283;-68
2022/01/10 01:00:00;;;;;;;4.70;3.08;;;;;;;;;;5068317;28;20048;-68
2022/01/10 01:02:31;;;;;;;4.45;2.70;;;;;;;;;;5067444;28;20040;-68
2022/01/10 01:04:57;;;;;;;5.75;3.13;;;;;;;;;;5069051;28;20032;-68
2022/01/10 01:07:22;;;;;;;7.15;2.70;;;;;;;;;;5068371;28;20544;-68
2022/01/10 01:09:56;;;;;;;3.92;2.70;;;;;;;;;;5068409;28;20024;-68
2022/01/10 01:12:39;;;;;;;5.45;3.00;;;;;;;;;;5067853;28;20418;-69
2022/01/10 01:15:18;;;;;;;3.42;2.63;;;;;;;;;;5069019;28;20471;-68
2022/01/10 01:18:54;;;;;;;4.97;2.80;;;;;;;;;;5067515;28;20071;-68
2022/01/10 01:25:47;;;;;;;5.60;2.63;;;;;;;;;;5068272;28;20105;-68
2022/01/10 01:28:12;;;;;;;3.63;2.58;;;;;;;;;;5066398;28;20056;-68
2022/01/10 01:30:38;;;;;;;3.63;2.72;;;;;;;;;;5067244;28;20110;-68
2022/01/10 01:33:03;;;;;;;4.07;2.42;;;;;;;;;;5068102;28;20028;-67
2022/01/10 01:35:28;;;;;;;2.47;2.15;;;;;;;;;;5068060;28;20055;-69
2022/01/10 01:37:55;;;;;;;6.60;2.67;;;;;;;;;;5067606;28;20036;-68
2022/01/10 01:40:21;;;;;;;3.22;2.63;;;;;;;;;;5068133;28;20029;-68
2022/01/10 01:42:47;;;;;;;4.40;3.00;;;;;;;;;;5067971;28;20466;-68
2022/01/10 01:45:15;;;;;;;3.50;2.33;;;;;;;;;;5068371;28;20071;-67
2022/01/10 01:47:43;;;;;;;4.07;2.80;;;;;;;;;;5067773;28;20649;-68
2022/01/10 01:50:08;;;;;;;7.93;2.97;;;;;;;;;;5066681;28;20513;-67
2022/01/10 01:52:34;;;;;;;5.10;3.40;;;;;;;;;;5066568;28;20044;-68
2022/01/10 01:54:59;;;;;;;5.30;2.90;;;;;;;;;;5066648;28;20020;-68
2022/01/10 01:57:25;;;;;;;5.43;3.15;;;;;;;;;;5067918;28;20063;-67
2022/01/10 01:59:50;;;;;;;4.60;2.80;;;;;;;;;;5067176;28;20107;-67
2022/01/10 02:02:15;;;;;;;3.47;2.80;;;;;;;;;;5066965;28;20036;-68
2022/01/10 02:04:41;;;;;;;4.35;2.78;;;;;;;;;;5083169;28;20025;-68
2022/01/10 02:07:06;;;;;;;8.15;3.20;;;;;;;;;;5067790;28;20074;-67
2022/01/10 02:09:32;;;;;;;5.05;2.58;;;;;;;;;;5067249;28;20072;-68
2022/01/10 02:11:57;;;;;;;4.47;2.72;;;;;;;;;;5066581;28;20522;-67
2022/01/10 02:14:23;;;;;;;4.20;3.08;;;;;;;;;;5067804;28;20028;-68
2022/01/10 02:16:56;;;;;;;5.28;2.83;;;;;;;;;;5067517;28;20036;-67
2022/01/10 02:19:24;;;;;;;4.75;2.70;;;;;;;;;;5065942;28;20039;-68
2022/01/10 02:21:50;;;;;;;4.85;2.50;;;;;;;;;;5067572;28;20082;-68
2022/01/10 02:24:15;;;;;;;4.60;2.55;;;;;;;;;;5066371;28;20463;-67
2022/01/10 02:26:40;;;;;;;3.78;2.65;;;;;;;;;;5050023;28;20181;-68
2022/01/10 02:29:06;;;;;;;4.53;2.75;;;;;;;;;;5066871;28;20048;-68
2022/01/10 02:31:35;;;;;;;5.38;2.90;;;;;;;;;;5065675;28;20060;-68
2022/01/10 02:34:01;;;;;;;4.70;3.47;;;;;;;;;;5053294;28;20029;-67
2022/01/10 02:36:27;;;;;;;5.45;2.80;;;;;;;;;;5071236;28;20024;-68
2022/01/10 02:38:57;;;;;;;6.15;3.28;;;;;;;;;;5070891;28;20060;-68
2022/01/10 02:41:23;;;;;;;4.72;3.08;;;;;;;;;;5069324;28;20743;-68
2022/01/10 02:43:49;;;;;;;2.97;2.67;;;;;;;;;;5069847;28;20039;-67
2022/01/10 02:46:14;;;;;;;6.72;3.08;;;;;;;;;;5071274;28;20035;-68
2022/01/10 02:48:40;;;;;;;5.70;3.50;;;;;;;;;;5070816;28;20028;-68
2022/01/10 02:51:05;;;;;;;11.23;3.90;;;;;;;;;;5069037;28;20032;-67
2022/01/10 02:53:30;;;;;;;6.95;4.40;;;;;;;;;;5069728;28;20436;-67
2022/01/10 02:55:56;;;;;;;3.92;3.10;;;;;;;;;;5070929;28;20467;-67
2022/01/10 02:58:21;;;;;;;5.03;3.40;;;;;;;;;;5069283;28;20036;-68
2022/01/10 03:00:47;;;;;;;5.18;3.70;;;;;;;;;;5068109;28;20044;-68
2022/01/10 03:03:12;;;;;;;4.30;3.15;;;;;;;;;;5062417;28;20035;-70
2022/01/10 03:05:37;;;;;;;4.63;3.63;;;;;;;;;;5053017;28;20071;-70
2022/01/10 03:08:03;;;;;;;6.22;3.92;;;;;;;;;;5052221;28;20079;-70
2022/01/10 03:10:29;;;;;;;4.38;3.60;;;;;;;;;;5052070;28;20534;-70
2022/01/10 03:12:54;;;;;;;6.93;3.85;;;;;;;;;;5051673;28;20044;-70
2022/01/10 03:15:19;;;;;;;5.65;3.55;;;;;;;;;;5051936;28;20036;-70
2022/01/10 03:17:45;;;;;;;10.23;3.97;;;;;;;;;;5051758;28;20035;-70
2022/01/10 03:20:10;;;;;;;6.85;3.97;;;;;;;;;;5051994;28;20262;-70
2022/01/10 03:22:36;;;;;;;9.35;4.10;;;;;;;;;;5052029;28;20035;-70
2022/01/10 03:25:01;;;;;;;4.80;3.53;;;;;;;;;;5052034;28;20070;-70
2022/01/10 03:27:26;;;;;;;5.45;3.58;;;;;;;;;;5052523;28;20830;-70
2022/01/10 03:29:52;;;;;;;8.60;3.60;;;;;;;;;;5069109;28;20036;-70
2022/01/10 03:32:17;;;;;;;5.15;3.13;;;;;;;;;;5051414;28;20577;-70
2022/01/10 03:34:43;;;;;;;5.28;3.25;;;;;;;;;;5053926;28;20111;-70
2022/01/10 03:37:08;;;;;;;6.10;3.67;;;;;;;;;;5052345;28;20123;-70
2022/01/10 03:39:35;;;;;;;5.20;3.63;;;;;;;;;;5050851;28;20028;-70
2022/01/10 03:42:00;;;;;;;5.30;3.42;;;;;;;;;;5052414;28;20021;-70
2022/01/10 03:44:25;;;;;;;5.47;3.70;;;;;;;;;;5050787;28;20021;-70
2022/01/10 03:46:51;;;;;;;4.63;3.15;;;;;;;;;;5052625;28;20055;-70
2022/01/10 03:49:16;;;;;;;7.32;3.33;;;;;;;;;;5049813;28;20020;-70
2022/01/10 03:51:42;;;;;;;6.40;3.72;;;;;;;;;;5055823;28;20107;-70
2022/01/10 03:54:07;;;;;;;5.72;3.83;;;;;;;;;;5060193;28;20117;-70
2022/01/10 03:56:33;;;;;;;6.13;4.28;;;;;;;;;;5051207;28;20127;-70
2022/01/10 03:58:58;;;;;;;11.50;4.28;;;;;;;;;;5052410;28;20039;-70
2022/01/10 04:01:24;;;;;;;6.30;3.95;;;;;;;;;;5051708;28;20044;-70
2022/01/10 04:03:49;;;;;;;5.35;3.42;;;;;;;;;;5051633;28;20446;-70
2022/01/10 04:06:14;;;;;;;6.55;3.97;;;;;;;;;;5051785;28;20119;-70
2022/01/10 04:08:40;;;;;;;4.90;3.50;;;;;;;;;;5050687;28;20326;-70
2022/01/10 04:11:05;;;;;;;5.80;3.88;;;;;;;;;;5051216;28;20031;-70
2022/01/10 04:13:30;;;;;;;4.15;3.50;;;;;;;;;;5051922;28;20028;-70
2022/01/10 04:15:56;;;;;;;6.35;4.22;;;;;;;;;;5053188;28;20734;-70
2022/01/10 04:18:21;;;;;;;6.05;3.97;;;;;;;;;;5053402;28;20025;-70
2022/01/10 04:20:47;;;;;;;8.20;3.60;;;;;;;;;;5050738;28;20028;-70
2022/01/10 04:23:13;;;;;;;6.72;3.85;;;;;;;;;;5050105;28;20032;-70
2022/01/10 04:25:38;;;;;;;6.43;2.80;;;;;;;;;;5049448;28;20032;-70
2022/01/10 04:28:03;;;;;;;5.63;3.15;;;;;;;;;;5050019;28;20108;-70
2022/01/10 04:30:29;;;;;;;4.28;3.20;;;;;;;;;;5051943;28;20040;-70
2022/01/10 04:32:57;;;;;;;5.07;3.30;;;;;;;;;;5052801;28;20095;-70
2022/01/10 04:35:22;;;;;;;4.90;3.38;;;;;;;;;;5065029;28;20040;-70
2022/01/10 04:37:47;;;;;;;3.85;2.95;;;;;;;;;;5051377;28;20464;-70
2022/01/10 04:40:13;;;;;;;6.28;3.75;;;;;;;;;;5050575;28;20052;-70
2022/01/10 04:42:38;;;;;;;4.22;3.30;;;;;;;;;;5051290;28;20111;-70
2022/01/10 04:45:04;;;;;;;6.50;3.88;;;;;;;;;;5050451;28;20083;-70
2022/01/10 04:47:29;;;;;;;6.45;3.58;;;;;;;;;;5037378;28;20028;-70
2022/01/10 04:52:29;;;;;;;5.80;3.15;;;;;;;;;;5050180;28;20312;-70
2022/01/10 04:54:54;;;;;;;6.05;3.58;;;;;;;;;;5036277;28;20107;-70
2022/01/10 04:57:19;;;;;;;6.72;3.80;;;;;;;;;;5051283;28;20051;-70
2022/01/10 04:59:45;;;;;;;7.03;3.75;;;;;;;;;;5051272;28;20029;-70
2022/01/10 05:02:10;;;;;;;7.43;4.25;;;;;;;;;;5048228;28;20090;-70
2022/01/10 05:04:36;;;;;;;7.43;4.72;;;;;;;;;;5051590;28;20471;-70
2022/01/10 05:07:01;;;;;;;6.65;5.10;;;;;;;;;;5049598;28;20132;-70
2022/01/10 05:09:26;;;;;;;7.90;5.70;;;;;;;;;;5049777;28;20021;-70
2022/01/10 05:11:52;;;;;;;10.85;5.65;;;;;;;;;;5050450;28;20032;-70
2022/01/10 05:14:17;;;;;;;9.13;5.75;;;;;;;;;;5051266;28;20077;-70
2022/01/10 05:16:44;;;;;;;9.57;6.55;;;;;;;;;;5049193;28;20032;-70
2022/01/10 05:19:09;;;;;;;9.88;6.10;;;;;;;;;;5048254;28;20032;-70
2022/01/10 05:21:35;;;;;;;7.72;5.00;;;;;;;;;;5048590;28;20021;-70
2022/01/10 05:24:00;;;;;;;6.60;5.28;;;;;;;;;;5051019;28;20024;-70
2022/01/10 05:26:25;;;;;;;6.93;5.28;;;;;;;;;;5048622;28;20779;-70
2022/01/10 05:28:52;;;;;;;7.25;4.72;;;;;;;;;;5047748;28;20543;-70
2022/01/10 05:31:18;;;;;;;8.93;5.35;;;;;;;;;;5048306;28;20040;-70
2022/01/10 05:33:43;;;;;;;9.70;5.38;;;;;;;;;;5049780;28;20035;-70
2022/01/10 05:36:08;;;;;;;6.20;4.93;;;;;;;;;;5047234;28;20387;-70
2022/01/10 05:38:34;;;;;;;15.07;8.63;;;;;;;;;;5052102;28;20068;-70
2022/01/10 05:40:59;;;;;;;20.00;11.85;;;;;;;;;;5053185;28;20044;-70
2022/01/10 05:43:24;;;;;;;13.02;8.85;;;;;;;;;;5049203;28;20035;-70
2022/01/10 05:45:50;;;;;;;13.18;6.88;;;;;;;;;;5034177;28;20367;-70
2022/01/10 05:48:22;;;;;;;9.45;6.18;;;;;;;;;;5045303;28;21009;-70
2022/01/10 05:50:47;;;;;;;11.40;6.22;;;;;;;;;;5049343;28;20392;-70
2022/01/10 05:53:13;;;;;;;8.40;6.22;;;;;;;;;;5049120;28;20032;-70
2022/01/10 05:55:39;;;;;;;10.00;6.13;;;;;;;;;;5046963;28;20486;-70
2022/01/10 05:58:05;;;;;;;7.68;4.90;;;;;;;;;;5050394;28;20029;-70
2022/01/10 06:00:30;;;;;;;11.63;5.43;;;;;;;;;;5047083;28;20041;-70
2022/01/10 06:02:56;;;;;;;7.32;4.60;;;;;;;;;;5047741;28;20397;-70
2022/01/10 06:05:21;;;;;;;9.57;5.25;;;;;;;;;;5047825;28;20036;-70
2022/01/10 06:07:46;;;;;;;9.85;5.55;;;;;;;;;;5046101;28;20123;-70
2022/01/10 06:10:12;;;;;;;7.22;5.03;;;;;;;;;;5055369;28;20027;-70
2022/01/10 06:12:37;;;;;;;8.15;5.90;;;;;;;;;;5054861;28;20125;-70
2022/01/10 06:15:03;;;;;;;8.20;5.72;;;;;;;;;;5067922;28;20157;-70
2022/01/10 06:17:28;;;;;;;10.60;5.55;;;;;;;;;;5039507;28;20127;-70
2022/01/10 06:19:54;;;;;;;10.30;6.35;;;;;;;;;;5047037;28;20129;-70
2022/01/10 06:22:19;;;;;;;8.57;6.60;;;;;;;;;;5053662;28;20048;-70
2022/01/10 06:24:44;;;;;;;10.77;6.60;;;;;;;;;;5057786;28;20062;-70
2022/01/10 06:27:10;;;;;;;9.77;6.53;;;;;;;;;;5054701;28;20534;-70
2022/01/10 06:29:35;;;;;;;12.20;6.93;;;;;;;;;;5056602;28;20056;-70
2022/01/10 06:32:00;;;;;;;11.13;6.85;;;;;;;;;;5053288;28;23563;-70
2022/01/10 06:34:25;;;;;;;9.07;5.88;;;;;;;;;;5050796;28;20028;-70
2022/01/10 06:36:51;;;;;;;10.27;5.88;;;;;;;;;;5050428;28;20029;-70
2022/01/10 06:39:16;;;;;;;10.25;6.63;;;;;;;;;;5050093;28;20033;-70
2022/01/10 06:41:41;;;;;;;11.48;6.75;;;;;;;;;;5051377;28;20032;-70
2022/01/10 06:44:07;;;;;;;9.82;6.50;;;;;;;;;;5051023;28;20374;-70
2022/01/10 06:46:32;;;;;;;14.05;6.72;;;;;;;;;;5049277;28;20822;-70
2022/01/10 06:48:57;;;;;;;10.43;6.63;;;;;;;;;;5049085;28;20052;-70
2022/01/10 06:51:23;;;;;;;10.05;6.55;;;;;;;;;;5052303;28;20711;-70
2022/01/10 06:53:48;;;;;;;12.63;6.38;;;;;;;;;;5052890;28;20025;-70
2022/01/10 06:56:13;;;;;;;12.55;6.70;;;;;;;;;;5049790;28;20598;-70
2022/01/10 06:58:39;;;;;;;12.85;8.38;;;;;;;;;;5054200;28;20538;-70
2022/01/10 07:01:04;;;;;;;13.30;8.40;;;;;;;;;;5049611;28;20054;-70
2022/01/10 07:03:29;;;;;;;13.27;7.32;;;;;;;;;;5051492;28;20020;-70
2022/01/10 07:05:55;;;;;;;11.70;8.20;;;;;;;;;;5049492;28;20107;-68
2022/01/10 07:08:22;;;;;;;14.27;7.65;;;;;;;;;;5053340;28;20039;-68
2022/01/10 07:10:47;;;;;;;10.48;7.10;;;;;;;;;;5053246;28;20474;-69
2022/01/10 07:13:12;;;;;;;10.07;7.10;;;;;;;;;;5022249;28;20032;-68
2022/01/10 07:15:38;;;;;;;12.82;7.50;;;;;;;;;;5053193;28;20151;-68
2022/01/10 07:18:03;;;;;;;16.08;8.63;;;;;;;;;;5052597;28;20100;-68
2022/01/10 07:20:29;;;;;;;17.20;9.30;;;;;;;;;;5051454;28;20031;-68
2022/01/10 07:22:54;;;;;;;19.30;10.15;;;;;;;;;;5051201;28;20063;-68
2022/01/10 07:25:19;;;;;;;18.30;8.68;;;;;;;;;;5054023;28;20031;-68
2022/01/10 07:27:45;;;;;;;13.40;8.13;;;;;;;;;;5054317;28;20030;-68
2022/01/10 07:30:10;;;;;;;10.88;7.00;;;;;;;;;;5051448;28;20451;-68
2022/01/10 07:32:35;;;;;;;11.50;7.07;;;;;;;;;;5054398;28;20032;-68
2022/01/10 07:35:01;;;;;;;10.23;6.88;;;;;;;;;;5051335;28;20029;-68
2022/01/10 07:37:26;;;;;;;10.13;6.90;;;;;;;;;;5053022;28;20035;-68
2022/01/10 07:39:51;;;;;;;9.57;6.60;;;;;;;;;;5054409;28;20072;-68
2022/01/10 07:42:17;;;;;;;11.70;6.82;;;;;;;;;;5048594;28;20119;-68
2022/01/10 07:44:42;;;;;;;11.25;6.80;;;;;;;;;;5053296;28;20067;-68
2022/01/10 07:47:08;;;;;;;9.75;6.15;;;;;;;;;;5053435;28;20117;-68
2022/01/10 07:49:34;;;;;;;11.75;7.25;;;;;;;;;;5053838;28;20107;-68
2022/01/10 07:51:59;;;;;;;12.75;8.18;;;;;;;;;;5050886;28;20021;-68
2022/01/10 07:54:25;;;;;;;11.23;8.32;;;;;;;;;;5051531;28;20029;-68
2022/01/10 07:56:50;;;;;;;17.05;8.15;;;;;;;;;;5052073;28;20035;-68
2022/01/10 07:59:16;;;;;;;12.90;8.48;;;;;;;;;;5054033;28;20423;-68
2022/01/10 08:01:41;;;;;;;13.57;8.40;;;;;;;;;;5054482;28;20036;-68
2022/01/10 08:04:06;;;;;;;12.05;8.23;;;;;;;;;;5052064;28;20138;-69
2022/01/10 08:06:32;;;;;;;12.82;8.27;;;;;;;;;;5049175;28;20551;-68
2022/01/10 08:08:57;;;;;;;14.73;8.30;;;;;;;;;;5048452;28;20047;-69
2022/01/10 08:11:26;;;;;;;15.57;9.40;;;;;;;;;;5051127;28;20040;-68
2022/01/10 08:13:52;;;;;;;13.20;8.95;;;;;;;;;;5051040;28;20119;-69
2022/01/10 08:16:17;;;;;;;12.60;9.10;;;;;;;;;;5051013;28;20039;-68
2022/01/10 08:18:42;;;;;;;17.52;9.13;;;;;;;;;;5052790;28;20581;-68
2022/01/10 08:21:07;;;;;;;12.13;8.73;;;;;;;;;;5045053;28;20542;-69
2022/01/10 08:23:33;;;;;;;20.23;9.90;;;;;;;;;;5048454;28;20141;-68
2022/01/10 08:25:58;;;;;;;15.65;9.25;;;;;;;;;;5051924;28;20681;-68
2022/01/10 08:28:24;;;;;;;15.55;10.18;;;;;;;;;;5051742;28;20085;-68
2022/01/10 08:30:49;;;;;;;19.13;10.48;;;;;;;;;;5048564;28;20041;-69
2022/01/10 08:33:14;;;;;;;17.67;9.82;;;;;;;;;;5051057;28;20466;-69
2022/01/10 08:35:40;;;;;;;17.95;10.80;;;;;;;;;;5051046;28;20543;-69
2022/01/10 08:38:05;;;;;;;18.63;10.82;;;;;;;;;;5053652;28;20042;-69
2022/01/10 08:40:30;;;;;;;17.05;9.65;;;;;;;;;;5054323;28;20095;-69
2022/01/10 08:42:56;;;;;;;16.40;10.25;;;;;;;;;;5052021;28;20028;-69
2022/01/10 08:45:21;;;;;;;21.73;10.55;;;;;;;;;;5051469;28;20125;-69
2022/01/10 08:47:46;;;;;;;20.45;10.98;;;;;;;;;;5049553;28;20479;-69
2022/01/10 08:50:12;;;;;;;16.40;10.15;;;;;;;;;;5050468;28;20420;-69
2022/01/10 08:52:37;;;;;;;17.15;10.70;;;;;;;;;;5051392;28;20369;-68
2022/01/10 08:55:03;;;;;;;26.00;11.77;;;;;;;;;;5051220;28;20086;-68
2022/01/10 08:57:29;;;;;;;19.83;10.40;;;;;;;;;;5049078;28;20601;-69
2022/01/10 08:59:54;;;;;;;17.33;10.55;;;;;;;;;;5047830;28;20150;-69
2022/01/10 09:02:19;;;;;;;20.38;9.82;;;;;;;;;;5030856;28;20044;-69
2022/01/10 09:04:46;;;;;;;19.63;9.98;;;;;;;;;;5052163;28;20060;-70
2022/01/10 09:07:12;;;;;;;17.45;9.45;;;;;;;;;;5049212;28;20032;-70
2022/01/10 09:09:37;;;;;;;22.98;9.45;;;;;;;;;;5048388;28;20067;-70
2022/01/10 09:12:03;;;;;;;16.05;9.85;;;;;;;;;;5047930;28;20123;-71
2022/01/10 09:14:28;;;;;;;18.10;9.77;;;;;;;;;;5047701;28;20099;-71
2022/01/10 09:16:53;;;;;;;20.20;10.07;;;;;;;;;;5046504;28;20043;-70
2022/01/10 09:19:19;;;;;;;19.13;9.75;;;;;;;;;;5049549;28;20046;-71
2022/01/10 09:21:44;;;;;;;22.40;11.23;;;;;;;;;;5046773;28;20032;-71
2022/01/10 09:24:10;;;;;;;19.80;11.38;;;;;;;;;;5046059;28;20055;-72
2022/01/10 09:26:35;;;;;;;22.98;11.60;;;;;;;;;;5065964;28;20124;-71
2022/01/10 09:29:00;;;;;;;22.45;11.27;;;;;;;;;;5055273;28;20029;-71
2022/01/10 09:31:26;;;;;;;24.60;10.90;;;;;;;;;;5053474;28;20071;-72
2022/01/10 09:33:55;;;;;;;19.77;10.75;;;;;;;;;;5048321;28;20031;-71
2022/01/10 09:36:26;;;;;;;20.23;11.55;;;;;;;;;;5049136;28;20028;-72
2022/01/10 09:38:52;;;;;;;20.63;11.32;;;;;;;;;;5048286;28;20548;-71
2022/01/10 09:41:17;;;;;;;25.42;10.95;;;;;;;;;;5047468;28;20055;-70
2022/01/10 09:43:49;;;;;;;23.02;11.45;;;;;;;;;;5047796;28;20032;-73
2022/01/10 09:46:14;;;;;;;27.98;12.02;;;;;;;;;;5047736;28;20085;-71
2022/01/10 09:48:39;;;;;;;23.38;11.90;;;;;;;;;;5031396;28;20024;-73
2022/01/10 09:51:05;;;;;;;22.40;11.65;;;;;;;;;;5048565;28;20036;-73
2022/01/10 09:53:30;;;;;;;25.60;12.50;;;;;;;;;;5029054;28;20098;-70
2022/01/10 09:55:55;;;;;;;21.10;12.65;;;;;;;;;;5044597;28;20119;-73
2022/01/10 09:58:22;;;;;;;19.85;11.00;;;;;;;;;;5048578;28;20441;-70
2022/01/10 10:00:47;;;;;;;22.60;10.30;;;;;;;;;;5048388;28;20036;-71
2022/01/10 10:03:13;;;;;;;24.30;10.35;;;;;;;;;;5047441;28;20028;-70
2022/01/10 10:05:38;;;;;;;20.48;10.35;;;;;;;;;;5044657;28;20037;-73
2022/01/10 10:08:03;;;;;;;20.10;10.23;;;;;;;;;;5048919;28;20032;-73
2022/01/10 10:10:29;;;;;;;19.33;9.63;;;;;;;;;;5046625;28;20054;-72
2022/01/10 10:12:54;;;;;;;25.65;9.88;;;;;;;;;;5047315;28;20411;-73
2022/01/10 10:15:23;;;;;;;18.05;9.50;;;;;;;;;;5033689;28;20077;-73
2022/01/10 10:17:48;;;;;;;20.80;9.85;;;;;;;;;;5062079;28;20144;-73
2022/01/10 10:20:21;;;;;;;21.88;9.70;;;;;;;;;;5048124;28;21858;-73
2022/01/10 10:22:47;;;;;;;15.68;9.70;;;;;;;;;;5031311;28;20116;-70
2022/01/10 10:25:12;;;;;;;23.65;10.48;;;;;;;;;;5047796;28;20036;-70
2022/01/10 10:27:42;;;;;;;30.95;12.75;;;;;;;;;;5047564;28;20028;-70
2022/01/10 10:30:23;;;;;;;20.52;11.13;;;;;;;;;;5046880;28;20588;-73
2022/01/10 10:32:50;;;;;;;21.20;11.18;;;;;;;;;;5049976;28;20036;-70
2022/01/10 10:35:15;;;;;;;23.45;10.82;;;;;;;;;;5046165;28;20118;-70
2022/01/10 10:37:41;;;;;;;24.13;11.65;;;;;;;;;;5031873;28;20391;-73
2022/01/10 10:40:09;;;;;;;27.70;11.82;;;;;;;;;;5047757;28;20102;-73
2022/01/10 10:42:38;;;;;;;23.75;12.15;;;;;;;;;;5044297;28;20043;-73
2022/01/10 10:45:08;;;;;;;26.42;12.02;;;;;;;;;;5032551;28;20160;-70
2022/01/10 10:47:34;;;;;;;24.65;12.05;;;;;;;;;;5047318;28;20047;-73
2022/01/10 10:50:00;;;;;;;24.05;11.70;;;;;;;;;;5045711;28;20136;-73
2022/01/10 10:52:36;;;;;;;26.40;12.95;;;;;;;;;;5046249;28;20036;-70
2022/01/10 10:55:12;;;;;;;29.58;12.27;;;;;;;;;;5033026;28;20036;-73
2022/01/10 10:57:38;;;;;;;27.05;12.13;;;;;;;;;;5049995;28;20044;-70
2022/01/10 11:00:08;;;;;;;21.15;11.80;;;;;;;;;;5031770;28;20449;-73
2022/01/10 11:02:34;;;;;;;28.08;12.43;;;;;;;;;;5048256;28;20195;-72
2022/01/10 11:05:03;;;;;;;24.85;11.98;;;;;;;;;;5026821;28;20814;-72
2022/01/10 11:07:31;;;;;;;26.25;11.90;;;;;;;;;;5050122;28;20035;-72
2022/01/10 11:09:56;;;;;;;22.40;11.23;;;;;;;;;;5035083;28;20031;-72
2022/01/10 11:12:22;;;;;;;21.15;10.18;;;;;;;;;;5041219;28;20041;-72
2022/01/10 11:14:48;;;;;;;16.83;9.55;;;;;;;;;;5034001;28;20085;-72
2022/01/10 11:17:20;;;;;;;22.27;10.20;;;;;;;;;;5019568;28;20974;-72
2022/01/10 11:20:16;;;;;;;19.77;9.80;;;;;;;;;;5033011;28;20028;-72
2022/01/10 11:22:47;;;;;;;15.82;9.20;;;;;;;;;;5049402;28;21834;-72
2022/01/10 11:25:19;;;;;;;19.10;10.02;;;;;;;;;;5035790;28;20040;-72
2022/01/10 11:27:45;;;;;;;19.55;10.40;;;;;;;;;;5050596;28;20360;-72
2022/01/10 11:30:38;;;;;;;22.10;9.63;;;;;;;;;;5046876;28;20537;-72
2022/01/10 11:33:27;;;;;;;19.85;10.15;;;;;;;;;;5049737;28;20036;-71
2022/01/10 11:35:57;;;;;;;23.15;11.07;;;;;;;;;;5031651;28;20032;-71
2022/01/10 11:38:45;;;;;;;21.70;10.27;;;;;;;;;;5049314;28;20024;-71
2022/01/10 11:41:37;;;;;;;18.20;10.25;;;;;;;;;;5049876;28;20151;-71
2022/01/10 11:44:08;;;;;;;22.00;10.07;;;;;;;;;;5047405;28;20108;-71
2022/01/10 11:46:36;;;;;;;18.00;9.35;;;;;;;;;;5030104;28;20143;-71
2022/01/10 11:49:18;;;;;;;18.70;9.85;;;;;;;;;;5046057;28;20033;-71
2022/01/10 11:51:49;;;;;;;24.83;11.02;;;;;;;;;;5049536;28;20051;-71
2022/01/10 11:54:26;;;;;;;16.45;10.20;;;;;;;;;;5049806;28;20368;-71
2022/01/10 11:57:07;;;;;;;22.30;10.88;;;;;;;;;;5048128;28;20077;-71
2022/01/10 11:59:39;;;;;;;17.83;10.70;;;;;;;;;;5044006;28;20372;-71
2022/01/10 12:02:11;;;;;;;29.10;13.88;;;;;;;;;;5043559;28;20567;-72
2022/01/10 12:04:37;;;;;;;22.80;11.60;;;;;;;;;;5052640;28;20717;-71
2022/01/10 12:07:04;;;;;;;27.00;12.65;;;;;;;;;;5050961;28;20034;-71
2022/01/10 12:09:30;;;;;;;21.17;11.48;;;;;;;;;;5048142;28;20040;-72
2022/01/10 12:11:57;;;;;;;24.70;12.65;;;;;;;;;;5047528;28;20445;-72
2022/01/10 12:14:22;;;;;;;25.45;14.35;;;;;;;;;;5051612;28;20078;-71
2022/01/10 12:16:48;;;;;;;25.40;13.45;;;;;;;;;;5048675;28;20115;-72
2022/01/10 12:19:13;;;;;;;24.92;13.27;;;;;;;;;;5048123;28;20462;-71
2022/01/10 12:21:39;;;;;;;25.98;13.88;;;;;;;;;;5048559;28;20647;-71
2022/01/10 12:24:06;;;;;;;22.73;13.55;;;;;;;;;;5032203;28;20487;-71
2022/01/10 12:26:31;;;;;;;26.23;13.45;;;;;;;;;;5048145;28;20048;-71
2022/01/10 12:28:58;;;;;;;24.33;13.38;;;;;;;;;;5048201;28;20111;-71
2022/01/10 12:31:25;;;;;;;28.35;12.95;;;;;;;;;;5046682;28;20029;-71
2022/01/10 12:33:50;;;;;;;25.75;13.48;;;;;;;;;;5048708;28;20151;-71
2022/01/10 12:36:17;;;;;;;27.17;12.52;;;;;;;;;;5051322;28;20724;-71
2022/01/10 12:38:43;;;;;;;24.20;13.23;;;;;;;;;;5051275;28;20049;-71
2022/01/10 12:41:09;;;;;;;26.73;12.93;;;;;;;;;;5051864;28;20036;-71
2022/01/10 12:43:34;;;;;;;28.25;15.15;;;;;;;;;;5051580;28;20056;-71
2022/01/10 12:45:59;;;;;;;34.83;15.85;;;;;;;;;;5050713;28;20043;-71
2022/01/10 12:48:25;;;;;;;28.13;13.95;;;;;;;;;;5046050;28;20074;-71
2022/01/10 12:50:52;;;;;;;26.52;13.50;;;;;;;;;;5043768;28;20120;-71
2022/01/10 12:53:17;;;;;;;23.20;13.43;;;;;;;;;;5033827;28;20034;-71
2022/01/10 12:55:42;;;;;;;23.65;13.32;;;;;;;;;;5032780;28;20037;-71
2022/01/10 12:58:08;;;;;;;26.05;13.40;;;;;;;;;;5049144;28;20302;-71
2022/01/10 13:00:33;;;;;;;24.20;13.82;;;;;;;;;;5045350;28;20040;-71
2022/01/10 13:03:03;;;;;;;29.33;13.98;;;;;;;;;;5047307;28;20029;-71
2022/01/10 13:05:28;;;;;;;30.65;13.73;;;;;;;;;;5046885;28;20518;-71
2022/01/10 13:07:54;;;;;;;28.33;14.75;;;;;;;;;;5034638;28;20143;-71
2022/01/10 13:10:26;;;;;;;32.90;15.32;;;;;;;;;;5028586;28;20732;-71
2022/01/10 13:12:54;;;;;;;27.90;14.90;;;;;;;;;;5048620;28;20405;-71
2022/01/10 13:15:20;;;;;;;29.90;14.20;;;;;;;;;;5033348;28;20596;-71
2022/01/10 13:17:52;;;;;;;23.90;13.07;;;;;;;;;;5045374;28;20119;-71
2022/01/10 13:20:17;;;;;;;28.65;14.98;;;;;;;;;;5046719;28;20111;-71
2022/01/10 13:22:43;;;;;;;28.10;14.48;;;;;;;;;;5018084;28;20551;-71
2022/01/10 13:25:16;;;;;;;28.33;14.63;;;;;;;;;;5046358;28;20052;-71
2022/01/10 13:27:46;;;;;;;28.27;14.68;;;;;;;;;;5043186;28;20422;-71
2022/01/10 13:30:16;;;;;;;29.15;13.65;;;;;;;;;;5045621;28;20020;-71
2022/01/10 13:32:42;;;;;;;27.98;13.82;;;;;;;;;;5049680;28;20441;-71
2022/01/10 13:35:18;;;;;;;26.85;14.38;;;;;;;;;;5047713;28;20028;-71
2022/01/10 13:37:57;;;;;;;24.30;13.65;;;;;;;;;;5049577;28;20024;-71
2022/01/10 13:40:24;;;;;;;24.77;13.55;;;;;;;;;;5047558;28;20038;-72
2022/01/10 13:42:53;;;;;;;28.38;14.63;;;;;;;;;;5050364;28;20436;-72
2022/01/10 13:45:21;;;;;;;28.60;14.13;;;;;;;;;;5049504;28;20107;-71
2022/01/10 13:47:50;;;;;;;28.08;13.57;;;;;;;;;;5049547;28;20078;-71
2022/01/10 13:50:35;;;;;;;26.02;12.95;;;;;;;;;;5047777;28;20047;-71
2022/01/10 13:53:03;;;;;;;;;;;;;;;;;;5050984;28;20096;-71
2022/01/10 13:55:28;;;;;;;23.13;12.02;;;;;;;;;;5045262;28;20367;-71
2022/01/10 13:57:54;;;;;;;24.45;12.70;;;;;;;;;;5033794;28;20036;-71
2022/01/10 14:00:23;;;;;;;26.42;12.93;;;;;;;;;;5042656;28;20037;-71
2022/01/10 14:02:50;;;;;;;26.38;13.40;;;;;;;;;;5046208;28;20071;-72
2022/01/10 14:05:26;;;;;;;26.40;13.65;;;;;;;;;;5046200;28;20029;-71
2022/01/10 14:07:52;;;;;;;24.77;14.50;;;;;;;;;;5043471;28;20024;-71
2022/01/10 14:10:17;;;;;;;22.45;13.00;;;;;;;;;;5045298;28;20392;-71
2022/01/10 14:12:42;;;;;;;32.08;14.18;;;;;;;;;;5032371;28;20067;-71
2022/01/10 14:15:08;;;;;;;24.83;13.35;;;;;;;;;;5052298;28;20082;-71
2022/01/10 14:17:34;;;;;;;25.17;13.27;;;;;;;;;;5051186;28;20706;-71
2022/01/10 14:19:59;;;;;;;25.50;13.40;;;;;;;;;;5051296;28;20075;-71
2022/01/10 14:22:24;;;;;;;23.45;12.55;;;;;;;;;;5046487;28;20044;-71
2022/01/10 14:24:50;;;;;;;22.58;12.88;;;;;;;;;;5046808;28;20555;-71
2022/01/10 14:27:15;;;;;;;32.83;13.30;;;;;;;;;;5041486;28;20521;-71
2022/01/10 14:29:41;;;;;;;26.88;13.52;;;;;;;;;;5046665;28;20550;-71
2022/01/10 14:32:08;;;;;;;24.60;13.10;;;;;;;;;;5049802;28;20554;-71
2022/01/10 14:34:33;;;;;;;22.67;12.80;;;;;;;;;;5049674;28;20040;-72
2022/01/10 14:36:58;;;;;;;25.60;13.57;;;;;;;;;;5050329;28;20188;-71